createdAt,value
2023-03-29T00:02:14.065Z,94904.75
2023-03-29T00:04:41.500Z,94908.13
2023-03-29T00:07:09.080Z,94909.03
2023-03-29T00:09:36.042Z,94914.81
2023-03-29T00:12:04.042Z,94935.16
2023-03-29T00:14:31.294Z,94939.56
2023-03-29T00:16:59.317Z,94933.25
2023-03-29T00:19:26.481Z,94939.88
2023-03-29T00:21:53.367Z,94923.41
2023-03-29T00:24:21.525Z,94926.72
2023-03-29T00:26:48.851Z,94909.53
2023-03-29T00:29:16.202Z,94905.28
2023-03-29T00:31:46.100Z,94903.63
2023-03-29T00:34:13.034Z,94874.81
2023-03-29T00:36:40.547Z,94885.81
2023-03-29T00:39:07.554Z,94861.91
2023-03-29T00:41:34.680Z,94874.44
2023-03-29T00:44:04.782Z,94880.84
2023-03-29T00:46:32.585Z,94882.13
2023-03-29T00:49:07.347Z,94883.59
2023-03-29T00:51:37.567Z,94891.84
2023-03-29T00:54:06.751Z,94886.75
2023-03-29T00:56:40.050Z,94891.28
2023-03-29T00:59:28.421Z,94899.78
2023-03-29T01:02:02.850Z,94905.84
2023-03-29T01:04:40.886Z,94892.88
2023-03-29T01:07:22.559Z,94884.81
2023-03-29T01:09:56.239Z,94878.25
2023-03-29T01:12:30.157Z,94892.94
2023-03-29T01:15:04.400Z,94896.50
2023-03-29T01:17:31.898Z,94898.16
2023-03-29T01:20:19.385Z,94899.38
2023-03-29T01:23:14.255Z,94903.56
2023-03-29T01:25:57.975Z,94905.84
2023-03-29T01:28:34.351Z,94898.91
2023-03-29T01:31:23.337Z,94884.94
2023-03-29T01:33:58.933Z,94874.06
2023-03-29T01:36:41.613Z,94872.84
2023-03-29T01:39:08.621Z,94867.41
2023-03-29T01:42:15.780Z,94882.97
2023-03-29T01:45:16.202Z,94884.06
2023-03-29T01:47:56.223Z,94889.28
2023-03-29T01:51:05.953Z,94889.00
2023-03-29T01:53:57.181Z,94914.47
2023-03-29T01:56:28.895Z,94888.84
2023-03-29T01:59:02.553Z,94882.25
2023-03-29T02:01:34.990Z,94904.44
2023-03-29T02:04:06.284Z,94902.22
2023-03-29T02:06:34.321Z,94879.84
2023-03-29T02:09:01.710Z,94854.13
2023-03-29T02:11:29.661Z,94838.78
2023-03-29T02:13:57.851Z,94817.94
2023-03-29T02:16:24.994Z,94822.59
2023-03-29T02:18:54.355Z,94828.19
2023-03-29T02:21:34.609Z,94829.97
2023-03-29T02:24:06.674Z,94826.03
2023-03-29T02:26:33.905Z,94802.81
2023-03-29T02:29:01.192Z,94818.22
2023-03-29T02:32:06.960Z,94807.41
2023-03-29T02:34:42.081Z,94801.66
2023-03-29T02:37:13.246Z,94794.09
2023-03-29T02:39:41.386Z,94801.78
2023-03-29T02:42:10.090Z,94809.94
2023-03-29T02:44:40.941Z,94816.47
2023-03-29T02:47:23.616Z,94821.31
2023-03-29T02:49:50.731Z,94834.47
2023-03-29T02:52:33.656Z,94810.94
2023-03-29T02:55:03.357Z,94814.31
2023-03-29T02:57:32.534Z,94802.94
2023-03-29T03:00:01.198Z,94778.72
2023-03-29T03:02:28.137Z,94777.72
2023-03-29T03:04:55.224Z,94778.31
2023-03-29T03:07:22.156Z,94792.31
2023-03-29T03:09:49.192Z,94786.22
2023-03-29T03:12:16.210Z,94779.50
2023-03-29T03:14:43.369Z,94777.00
2023-03-29T03:17:10.261Z,94776.50
2023-03-29T03:19:37.127Z,94776.50
2023-03-29T03:22:06.149Z,94772.38
2023-03-29T03:24:32.994Z,94771.22
2023-03-29T03:26:59.958Z,94775.38
2023-03-29T03:29:26.816Z,94781.97
2023-03-29T03:31:54.292Z,94783.91
2023-03-29T03:34:21.387Z,94789.69
2023-03-29T03:36:48.350Z,94775.69
2023-03-29T03:39:15.194Z,94766.47
2023-03-29T03:41:42.035Z,94754.25
2023-03-29T03:44:08.928Z,94763.03
2023-03-29T03:46:36.088Z,94770.06
2023-03-29T03:49:03.169Z,94755.13
2023-03-29T03:51:30.080Z,94754.81
2023-03-29T03:53:56.933Z,94756.19
2023-03-29T03:56:23.771Z,94766.06
2023-03-29T03:58:50.614Z,94754.81
2023-03-29T04:01:18.345Z,94769.91
2023-03-29T04:03:46.064Z,94764.16
2023-03-29T04:06:12.974Z,94747.94
2023-03-29T04:08:40.718Z,94749.03
2023-03-29T04:11:07.843Z,94752.34
2023-03-29T04:13:35.010Z,94761.53
2023-03-29T04:16:02.041Z,94767.19
2023-03-29T04:18:29.036Z,94771.88
2023-03-29T04:20:55.946Z,94770.25
2023-03-29T04:23:22.767Z,94777.38
2023-03-29T04:25:49.652Z,94777.38
2023-03-29T04:28:16.634Z,94769.72
2023-03-29T04:30:43.504Z,94753.75
2023-03-29T04:33:10.587Z,94744.16
2023-03-29T04:35:38.043Z,94735.22
2023-03-29T04:38:04.874Z,94728.22
2023-03-29T04:40:31.948Z,94727.25
2023-03-29T04:43:00.281Z,94737.00
2023-03-29T04:45:27.481Z,94744.56
2023-03-29T04:47:59.934Z,94735.75
2023-03-29T04:50:26.954Z,94731.22
2023-03-29T04:52:53.808Z,94745.84
2023-03-29T04:55:20.691Z,94740.06
2023-03-29T04:57:47.525Z,94744.03
2023-03-29T05:00:15.659Z,94737.00
2023-03-29T05:02:46.450Z,94736.59
2023-03-29T05:05:14.356Z,94743.47
2023-03-29T05:07:41.331Z,94739.03
2023-03-29T05:10:09.461Z,94749.00
2023-03-29T05:12:37.008Z,94755.72
2023-03-29T05:15:08.457Z,94759.25
2023-03-29T05:17:35.635Z,94743.31
2023-03-29T05:20:09.352Z,94751.84
2023-03-29T05:22:36.761Z,94763.69
2023-03-29T05:25:03.798Z,94758.16
2023-03-29T05:27:30.964Z,94762.81
2023-03-29T05:29:58.004Z,94765.69
2023-03-29T05:32:24.981Z,94767.94
2023-03-29T05:34:51.884Z,94757.63
2023-03-29T05:37:19.421Z,94770.13
2023-03-29T05:39:46.318Z,94766.38
2023-03-29T05:42:15.720Z,94753.50
2023-03-29T05:44:42.616Z,94755.00
2023-03-29T05:47:09.453Z,94734.38
2023-03-29T05:49:38.247Z,94744.44
2023-03-29T05:52:06.896Z,94747.72
2023-03-29T05:54:33.839Z,94754.03
2023-03-29T05:57:00.699Z,94764.19
2023-03-29T05:59:29.805Z,94754.44
2023-03-29T06:01:57.071Z,94756.25
2023-03-29T06:04:24.696Z,94758.72
2023-03-29T06:06:53.232Z,94768.31
2023-03-29T06:09:20.245Z,94752.81
2023-03-29T06:11:47.829Z,94771.34
2023-03-29T06:14:15.756Z,94779.09
2023-03-29T06:16:43.442Z,94773.84
2023-03-29T06:19:10.553Z,94763.94
2023-03-29T06:21:37.428Z,94758.59
2023-03-29T06:24:04.809Z,94766.56
2023-03-29T06:26:31.724Z,94762.56
2023-03-29T06:28:58.564Z,94779.34
2023-03-29T06:31:25.487Z,94770.13
2023-03-29T06:33:52.360Z,94763.66
2023-03-29T06:36:20.371Z,94766.66
2023-03-29T06:38:47.388Z,94758.81
2023-03-29T06:41:15.060Z,94776.84
2023-03-29T06:43:42.062Z,94770.50
2023-03-29T06:46:12.272Z,94781.75
2023-03-29T06:48:41.145Z,94784.50
2023-03-29T06:51:08.713Z,94778.44
2023-03-29T06:53:36.880Z,94775.41
2023-03-29T06:56:09.474Z,94770.34
2023-03-29T06:58:37.002Z,94771.69
2023-03-29T07:01:04.870Z,94774.41
2023-03-29T07:03:35.106Z,94766.69
2023-03-29T07:06:09.947Z,94773.25
2023-03-29T07:08:43.957Z,94770.50
2023-03-29T07:11:13.271Z,94780.53
2023-03-29T07:13:42.745Z,94776.78
2023-03-29T07:16:14.033Z,94781.44
2023-03-29T07:18:43.120Z,94780.47
2023-03-29T07:21:12.577Z,94777.28
2023-03-29T07:23:40.858Z,94770.59
2023-03-29T07:26:08.699Z,94787.84
2023-03-29T07:28:37.692Z,94770.50
2023-03-29T07:31:11.264Z,94749.91
2023-03-29T07:33:39.479Z,94779.94
2023-03-29T07:36:07.178Z,94778.16
2023-03-29T07:38:34.180Z,94770.56
2023-03-29T07:41:06.971Z,94782.59
2023-03-29T07:43:34.728Z,94790.00
2023-03-29T07:46:06.491Z,94786.28
2023-03-29T07:48:34.025Z,94788.47
2023-03-29T07:51:01.673Z,94776.19
2023-03-29T07:53:29.921Z,94782.94
2023-03-29T07:55:57.268Z,94794.84
2023-03-29T07:58:24.285Z,94778.75
2023-03-29T08:00:51.164Z,94799.41
2023-03-29T08:03:18.313Z,94797.53
2023-03-29T08:05:45.293Z,94800.09
2023-03-29T08:08:12.601Z,94805.41
2023-03-29T08:10:39.689Z,94802.91
2023-03-29T08:13:10.073Z,94803.97
2023-03-29T08:15:39.630Z,94808.91
2023-03-29T08:18:08.230Z,94806.09
2023-03-29T08:20:35.182Z,94799.34
2023-03-29T08:23:02.108Z,94797.47
2023-03-29T08:25:29.099Z,94809.81
2023-03-29T08:27:56.076Z,94802.28
2023-03-29T08:30:22.929Z,94808.22
2023-03-29T08:32:52.955Z,94810.63
2023-03-29T08:35:21.475Z,94802.75
2023-03-29T08:37:48.264Z,94809.16
2023-03-29T08:40:26.560Z,94816.44
2023-03-29T08:43:11.442Z,94823.66
2023-03-29T08:45:56.205Z,94816.81
2023-03-29T08:48:42.513Z,94826.19
2023-03-29T08:51:29.719Z,94815.34
2023-03-29T08:54:04.388Z,94819.53
2023-03-29T08:56:35.556Z,94819.16
2023-03-29T08:59:02.774Z,94808.50
2023-03-29T09:01:35.608Z,94813.50
2023-03-29T09:04:12.116Z,94800.72
2023-03-29T09:06:41.761Z,94801.09
2023-03-29T09:09:35.055Z,94809.50
2023-03-29T09:12:16.930Z,94801.16
2023-03-29T09:15:15.679Z,94795.47
2023-03-29T09:17:59.373Z,94803.53
2023-03-29T09:20:45.065Z,94801.75
2023-03-29T09:23:34.414Z,94795.19
2023-03-29T09:26:34.193Z,94792.06
2023-03-29T09:29:50.437Z,94794.41
2023-03-29T09:32:47.033Z,94781.41
2023-03-29T09:35:18.850Z,94778.97
2023-03-29T09:37:48.165Z,94780.25
2023-03-29T09:40:25.472Z,94767.88
2023-03-29T09:42:55.209Z,94777.06
2023-03-29T09:45:22.183Z,94765.06
2023-03-29T09:48:10.676Z,94768.13
2023-03-29T09:50:43.946Z,94760.44
2023-03-29T09:53:11.021Z,94763.53
2023-03-29T09:55:40.368Z,94770.41
2023-03-29T09:58:24.056Z,94759.31
2023-03-29T10:00:51.728Z,94764.53
2023-03-29T10:03:27.648Z,94756.91
2023-03-29T10:05:58.875Z,94757.81
2023-03-29T10:08:36.089Z,94761.34
2023-03-29T10:11:31.653Z,94755.25
2023-03-29T10:14:21.625Z,94754.13
2023-03-29T10:16:56.598Z,94746.22
2023-03-29T10:19:35.124Z,94759.00
2023-03-29T10:22:18.382Z,94757.25
2023-03-29T10:24:51.865Z,94763.97
2023-03-29T10:27:37.002Z,94749.78
2023-03-29T10:30:13.374Z,94754.78
2023-03-29T10:32:41.614Z,94735.25
2023-03-29T10:35:16.995Z,94749.00
2023-03-29T10:37:49.590Z,94744.44
2023-03-29T10:40:22.693Z,94729.31
2023-03-29T10:42:52.097Z,94737.28
2023-03-29T10:45:26.108Z,94736.38
2023-03-29T10:47:57.769Z,94722.00
2023-03-29T10:50:32.777Z,94721.38
2023-03-29T10:53:00.072Z,94717.34
2023-03-29T10:56:12.442Z,94708.63
2023-03-29T10:59:30.299Z,94713.91
2023-03-29T11:02:15.425Z,94731.88
2023-03-29T11:05:13.814Z,94719.66
2023-03-29T11:08:10.035Z,94716.66
2023-03-29T11:10:58.121Z,94718.56
2023-03-29T11:13:53.539Z,94718.28
2023-03-29T11:16:39.538Z,94708.56
2023-03-29T11:19:28.337Z,94719.50
2023-03-29T11:22:03.793Z,94718.97
2023-03-29T11:25:04.677Z,94724.47
2023-03-29T11:28:01.588Z,94723.31
2023-03-29T11:30:37.081Z,94725.56
2023-03-29T11:33:34.010Z,94734.25
2023-03-29T11:36:29.849Z,94729.31
2023-03-29T11:39:12.209Z,94722.34
2023-03-29T11:41:44.273Z,94707.31
2023-03-29T11:44:19.856Z,94698.31
2023-03-29T11:46:57.132Z,94726.34
2023-03-29T11:49:30.845Z,94710.59
2023-03-29T11:52:14.921Z,94722.31
2023-03-29T11:54:49.475Z,94724.84
2023-03-29T11:57:31.464Z,94714.88
2023-03-29T12:00:31.815Z,94714.53
2023-03-29T12:03:07.051Z,94721.69
2023-03-29T12:05:43.596Z,94698.06
2023-03-29T12:08:35.965Z,94689.56
2023-03-29T12:11:17.409Z,94720.31
2023-03-29T12:14:06.126Z,94705.28
2023-03-29T12:16:44.242Z,94670.81
2023-03-29T12:19:22.114Z,94664.94
2023-03-29T12:21:49.677Z,94705.06
2023-03-29T12:24:18.327Z,94715.13
2023-03-29T12:27:03.236Z,94703.19
2023-03-29T12:29:39.012Z,94706.25
2023-03-29T12:32:58.892Z,94697.13
2023-03-29T12:35:59.219Z,94689.06
2023-03-29T12:38:30.699Z,94698.91
2023-03-29T12:41:02.158Z,94690.59
2023-03-29T12:43:38.090Z,94677.16
2023-03-29T12:46:20.199Z,94671.03
2023-03-29T12:48:51.741Z,94663.88
2023-03-29T12:51:23.660Z,94672.97
2023-03-29T12:53:54.213Z,94673.44
2023-03-29T12:56:24.413Z,94657.09
2023-03-29T12:58:59.073Z,94673.63
2023-03-29T13:01:37.925Z,94638.28
2023-03-29T13:04:17.775Z,94669.31
2023-03-29T13:06:47.636Z,94683.44
2023-03-29T13:09:35.449Z,94668.09
2023-03-29T13:12:10.867Z,94688.78
2023-03-29T13:14:43.277Z,94689.78
2023-03-29T13:17:26.688Z,94669.31
2023-03-29T13:20:37.761Z,94671.66
2023-03-29T13:23:41.199Z,94679.38
2023-03-29T13:26:35.739Z,94666.78
2023-03-29T13:29:24.201Z,94675.72
2023-03-29T13:32:15.006Z,94674.81
2023-03-29T13:35:02.844Z,94676.25
2023-03-29T13:37:54.402Z,94653.38
2023-03-29T13:40:32.042Z,94667.69
2023-03-29T13:43:18.873Z,94674.03
2023-03-29T13:46:21.450Z,94672.63
2023-03-29T13:49:20.695Z,94656.25
2023-03-29T13:51:53.955Z,94668.13
2023-03-29T13:54:28.992Z,94645.66
2023-03-29T13:57:17.453Z,94658.34
2023-03-29T14:00:12.095Z,94656.09
2023-03-29T14:02:51.757Z,94656.50
2023-03-29T14:05:25.138Z,94648.75
2023-03-29T14:07:54.723Z,94645.66
2023-03-29T14:10:37.284Z,94643.63
2023-03-29T14:13:04.743Z,94642.41
2023-03-29T14:15:57.534Z,94647.94
2023-03-29T14:18:26.712Z,94651.81
2023-03-29T14:20:56.340Z,94645.06
2023-03-29T14:23:27.320Z,94636.28
2023-03-29T14:25:54.260Z,94630.75
2023-03-29T14:28:25.163Z,94607.88
2023-03-29T14:30:53.218Z,94614.63
2023-03-29T14:33:34.821Z,94633.59
2023-03-29T14:36:04.380Z,94618.69
2023-03-29T14:38:32.592Z,94609.69
2023-03-29T14:41:01.080Z,94621.53
2023-03-29T14:43:31.501Z,94593.50
2023-03-29T14:46:01.809Z,94598.53
2023-03-29T14:48:29.235Z,94609.34
2023-03-29T14:50:56.416Z,94612.78
2023-03-29T14:53:24.499Z,94603.16
2023-03-29T14:55:53.448Z,94623.84
2023-03-29T14:58:46.738Z,94614.84
2023-03-29T15:01:20.603Z,94618.13
2023-03-29T15:04:11.209Z,94604.63
2023-03-29T15:06:43.927Z,94589.72
2023-03-29T15:09:35.144Z,94599.09
2023-03-29T15:12:03.865Z,94590.06
2023-03-29T15:14:34.244Z,94598.00
2023-03-29T15:17:49.523Z,94591.81
2023-03-29T15:20:26.590Z,94586.91
2023-03-29T15:23:04.885Z,94583.59
2023-03-29T15:25:47.979Z,94582.56
2023-03-29T15:28:31.332Z,94573.09
2023-03-29T15:31:10.320Z,94572.97
2023-03-29T15:33:40.354Z,94569.44
2023-03-29T15:36:10.189Z,94577.94
2023-03-29T15:38:44.021Z,94566.69
2023-03-29T15:41:14.667Z,94580.78
2023-03-29T15:43:42.210Z,94567.72
2023-03-29T15:46:12.413Z,94572.59
2023-03-29T15:48:39.421Z,94561.22
2023-03-29T15:51:07.204Z,94564.47
2023-03-29T15:53:34.379Z,94564.84
2023-03-29T15:56:02.852Z,94551.84
2023-03-29T15:58:36.701Z,94573.16
2023-03-29T16:01:35.836Z,94567.91
2023-03-29T16:04:11.355Z,94574.53
2023-03-29T16:06:39.128Z,94574.53
2023-03-29T16:09:07.327Z,94564.56
2023-03-29T16:11:35.280Z,94581.66
2023-03-29T16:14:02.353Z,94567.63
2023-03-29T16:16:29.463Z,94586.84
2023-03-29T16:18:56.571Z,94578.72
2023-03-29T16:21:25.671Z,94574.31
2023-03-29T16:23:54.499Z,94581.63
2023-03-29T16:26:38.255Z,94542.47
2023-03-29T16:40:29.293Z,94539.38
2023-03-29T16:55:05.832Z,94588.00
2023-03-29T17:00:36.156Z,94534.38
2023-03-29T17:06:46.789Z,94527.66
2023-03-29T17:09:20.291Z,94558.50
2023-03-29T17:12:29.325Z,94521.97
2023-03-29T17:18:46.095Z,94603.44
2023-03-29T17:21:13.071Z,94595.44
2023-03-29T17:23:39.899Z,94594.22
2023-03-29T17:26:07.297Z,94583.19
2023-03-29T17:28:34.696Z,94595.84
2023-03-29T17:31:09.823Z,94595.38
2023-03-29T17:33:36.829Z,94589.03
2023-03-29T17:36:06.272Z,94596.00
2023-03-29T17:38:34.435Z,94588.78
2023-03-29T17:41:03.059Z,94587.56
2023-03-29T17:43:30.587Z,94582.44
2023-03-29T17:45:57.741Z,94589.97
2023-03-29T17:48:25.091Z,94582.00
2023-03-29T17:50:52.140Z,94571.53
2023-03-29T17:53:19.289Z,94570.66
2023-03-29T17:55:46.171Z,94586.97
2023-03-29T17:58:14.695Z,94589.38
2023-03-29T18:00:41.547Z,94598.09
2023-03-29T18:03:08.485Z,94604.81
2023-03-29T18:05:36.322Z,94606.41
2023-03-29T18:08:03.732Z,94591.59
2023-03-29T18:10:30.822Z,94590.53
2023-03-29T18:12:57.656Z,94589.56
2023-03-29T18:15:24.538Z,94598.81
2023-03-29T18:17:51.397Z,94587.94
2023-03-29T18:20:18.621Z,94602.38
2023-03-29T18:22:45.622Z,94596.03
2023-03-29T18:25:13.131Z,94596.00
2023-03-29T18:27:40.627Z,94590.22
2023-03-29T18:30:08.946Z,94594.63
2023-03-29T18:32:36.604Z,94598.22
2023-03-29T18:35:03.880Z,94594.50
2023-03-29T18:37:31.254Z,94596.28
2023-03-29T18:39:58.202Z,94590.50
2023-03-29T18:42:25.217Z,94598.16
2023-03-29T18:44:52.079Z,94599.25
2023-03-29T18:47:18.950Z,94605.31
2023-03-29T18:49:45.987Z,94612.59
2023-03-29T18:52:13.087Z,94615.13
2023-03-29T18:54:40.044Z,94598.03
2023-03-29T18:57:06.989Z,94603.16
2023-03-29T18:59:36.205Z,94595.91
2023-03-29T19:02:04.271Z,94596.66
2023-03-29T19:04:31.238Z,94602.72
2023-03-29T19:06:59.975Z,94605.84
2023-03-29T19:09:27.955Z,94606.47
2023-03-29T19:11:54.782Z,94608.81
2023-03-29T19:14:24.357Z,94587.53
2023-03-29T19:16:54.185Z,94595.72
2023-03-29T19:19:23.523Z,94598.66
2023-03-29T19:21:50.496Z,94565.47
2023-03-29T19:24:17.960Z,94587.19
2023-03-29T19:26:45.666Z,94578.28
2023-03-29T19:29:12.712Z,94557.50
2023-03-29T19:31:39.805Z,94545.97
2023-03-29T19:34:09.768Z,94576.03
2023-03-29T19:36:37.621Z,94576.34
2023-03-29T19:39:05.837Z,94565.03
2023-03-29T19:41:32.823Z,94566.41
2023-03-29T19:43:59.758Z,94580.41
2023-03-29T19:46:28.543Z,94577.94
2023-03-29T19:48:56.377Z,94577.94
2023-03-29T19:51:24.123Z,94559.50
2023-03-29T19:53:51.020Z,94571.97
2023-03-29T19:56:18.016Z,94572.59
2023-03-29T19:58:44.989Z,94562.78
2023-03-29T20:01:11.852Z,94570.66
2023-03-29T20:03:40.439Z,94561.69
2023-03-29T20:06:10.599Z,94557.16
2023-03-29T20:08:39.088Z,94564.34
2023-03-29T20:11:10.608Z,94569.50
2023-03-29T20:13:39.346Z,94561.06
2023-03-29T20:16:12.806Z,94559.91
2023-03-29T20:18:39.995Z,94536.94
2023-03-29T20:21:09.043Z,94554.69
2023-03-29T20:23:36.585Z,94548.41
2023-03-29T20:26:03.739Z,94547.44
2023-03-29T20:28:30.704Z,94558.84
2023-03-29T20:30:57.503Z,94548.94
2023-03-29T20:33:24.400Z,94557.59
2023-03-29T20:35:51.358Z,94548.66
2023-03-29T20:38:18.292Z,94548.06
2023-03-29T20:40:45.155Z,94537.72
2023-03-29T20:43:13.722Z,94553.38
2023-03-29T20:45:52.822Z,94554.88
2023-03-29T20:48:24.928Z,94542.78
2023-03-29T20:50:51.945Z,94547.28
2023-03-29T20:53:20.813Z,94539.53
2023-03-29T20:55:48.243Z,94539.00
2023-03-29T20:58:16.112Z,94543.28
2023-03-29T21:00:43.838Z,94539.53
2023-03-29T21:03:11.331Z,94522.63
2023-03-29T21:05:39.078Z,94527.16
2023-03-29T21:08:06.383Z,94525.28
2023-03-29T21:10:33.512Z,94524.25
2023-03-29T21:13:00.759Z,94531.53
2023-03-29T21:15:31.215Z,94530.91
2023-03-29T21:17:58.712Z,94512.91
2023-03-29T21:20:26.073Z,94521.56
2023-03-29T21:22:52.963Z,94528.28
2023-03-29T21:25:19.933Z,94521.91
2023-03-29T21:27:46.845Z,94526.97
2023-03-29T21:30:14.119Z,94518.09
2023-03-29T21:32:41.754Z,94520.91
2023-03-29T21:35:09.838Z,94520.03
2023-03-29T21:37:36.904Z,94511.03
2023-03-29T21:40:06.222Z,94522.31
2023-03-29T21:42:34.562Z,94526.22
2023-03-29T21:45:01.967Z,94513.03
2023-03-29T21:47:29.326Z,94516.31
2023-03-29T21:49:56.257Z,94511.53
2023-03-29T21:52:23.198Z,94516.69
2023-03-29T21:54:50.208Z,94508.31
2023-03-29T21:57:17.091Z,94511.22
2023-03-29T21:59:44.019Z,94521.53
2023-03-29T22:02:11.021Z,94510.97
2023-03-29T22:04:38.044Z,94510.50
2023-03-29T22:07:06.253Z,94509.00
2023-03-29T22:09:37.538Z,94503.22
2023-03-29T22:12:05.025Z,94498.03
2023-03-29T22:14:35.377Z,94465.47
2023-03-29T22:17:06.285Z,94507.50
2023-03-29T22:19:39.399Z,94498.84
2023-03-29T22:22:07.393Z,94500.66
2023-03-29T22:24:34.270Z,94496.19
2023-03-29T22:27:01.136Z,94488.75
2023-03-29T22:29:28.000Z,94500.84
2023-03-29T22:31:54.851Z,94500.47
2023-03-29T22:34:21.809Z,94493.28
2023-03-29T22:36:48.737Z,94499.28
2023-03-29T22:39:16.124Z,94481.00
2023-03-29T22:41:43.080Z,94487.53
2023-03-29T22:44:09.940Z,94455.56
2023-03-29T22:46:36.866Z,94487.66
2023-03-29T22:49:04.244Z,94493.91
2023-03-29T22:51:31.306Z,94487.84
2023-03-29T22:53:58.248Z,94476.81
2023-03-29T22:56:25.624Z,94480.72
2023-03-29T22:58:52.443Z,94490.91
2023-03-29T23:01:19.316Z,94485.00
2023-03-29T23:03:46.393Z,94483.34
2023-03-29T23:06:13.269Z,94474.31
2023-03-29T23:08:40.128Z,94486.75
2023-03-29T23:11:07.557Z,94486.69
2023-03-29T23:13:35.363Z,94459.06
2023-03-29T23:16:03.906Z,94476.31
2023-03-29T23:18:35.001Z,94477.97
2023-03-29T23:21:05.272Z,94478.31
2023-03-29T23:23:32.784Z,94479.75
2023-03-29T23:25:59.657Z,94480.31
2023-03-29T23:28:30.805Z,94484.09
2023-03-29T23:31:06.986Z,94478.84
2023-03-29T23:33:36.045Z,94484.56
2023-03-29T23:36:06.267Z,94477.84
2023-03-29T23:38:35.551Z,94489.53
2023-03-29T23:41:06.513Z,94483.44
2023-03-29T23:43:37.429Z,94482.81
2023-03-29T23:46:14.265Z,94486.72
2023-03-29T23:48:49.237Z,94496.81
2023-03-29T23:51:23.697Z,94477.44
2023-03-29T23:53:51.398Z,94502.00
2023-03-29T23:56:18.259Z,94496.53
2023-03-29T23:58:45.171Z,94500.97
